Time;durP1;ratioP1;P1;durP2;ratioP2;P2;SDS_P1;SDS_P2;PMS_P1;PMS_P2;Temp;Humidity;BMP_temperature;BMP_pressure;BME280_temperature;BME280_humidity;BME280_pressure;Samples;Min_cycle;Max_cycle;Signal;HPM_P1;HPM_P2
2023/06/26 00:02:01;;;;;;;4.18;3.45;;;18.30;99.90;18.30;100659.00;;;;4988243;28;108111;-68
2023/06/26 00:04:26;;;;;;;4.28;3.53;;;18.30;99.90;18.30;100656.00;;;;4984506;28;119002;-68
2023/06/26 00:06:52;;;;;;;6.15;4.53;;;18.20;99.90;18.30;100650.00;;;;4989487;28;117286;-68
2023/06/26 00:09:20;;;;;;;3.20;2.85;;;18.20;99.90;18.20;100646.00;;;;4990356;28;86990;-68
2023/06/26 00:11:46;;;;;;;4.88;4.38;;;18.20;99.90;18.10;100648.00;;;;4992467;28;87900;-68
2023/06/26 00:14:12;;;;;;;3.70;3.35;;;18.10;99.90;18.10;100653.00;;;;4992244;28;117775;-68
2023/06/26 00:16:37;;;;;;;3.72;3.33;;;18.00;99.90;18.10;100655.00;;;;4998785;28;110403;-70
2023/06/26 00:19:03;;;;;;;4.28;3.88;;;18.00;99.90;18.00;100650.00;;;;4992434;28;109583;-69
2023/06/26 00:21:29;;;;;;;4.30;3.90;;;18.00;99.90;18.00;100650.00;;;;4992635;28;107728;-69
2023/06/26 00:23:54;;;;;;;4.80;4.38;;;17.90;99.90;18.00;100651.00;;;;4991387;28;117066;-67
2023/06/26 00:26:20;;;;;;;4.53;3.60;;;17.90;99.90;17.90;100645.00;;;;4991354;28;115287;-67
2023/06/26 00:28:45;;;;;;;4.15;3.70;;;17.90;99.90;17.90;100650.00;;;;4993088;28;109849;-67
2023/06/26 00:31:11;;;;;;;5.50;4.50;;;17.80;99.90;17.90;100650.00;;;;4990640;28;109121;-68
2023/06/26 00:33:37;;;;;;;3.53;3.15;;;17.80;99.90;17.90;100650.00;;;;4995345;28;88200;-67
2023/06/26 00:36:03;;;;;;;3.85;3.45;;;17.80;99.90;17.90;100649.00;;;;4993115;28;96257;-67
2023/06/26 00:38:28;;;;;;;4.80;3.83;;;17.80;99.90;17.90;100646.00;;;;4990448;28;94117;-68
2023/06/26 00:40:54;;;;;;;4.25;3.60;;;17.70;99.90;17.80;100641.00;;;;4992599;28;109004;-68
2023/06/26 00:43:20;;;;;;;4.10;3.70;;;17.80;99.90;17.80;100645.00;;;;4993368;28;89098;-68
2023/06/26 00:45:46;;;;;;;3.72;3.42;;;17.80;99.90;17.80;100638.00;;;;4994563;28;117441;-68
2023/06/26 00:48:14;;;;;;;4.15;3.55;;;17.70;99.90;17.80;100636.00;;;;4992552;28;110519;-69
2023/06/26 00:50:42;;;;;;;5.22;4.43;;;17.70;99.90;17.70;100633.00;;;;4961132;28;100577;-68
2023/06/26 00:53:10;;;;;;;6.03;3.92;;;17.70;99.90;17.60;100636.00;;;;4975625;28;116594;-68
2023/06/26 00:55:36;;;;;;;4.85;4.35;;;17.60;99.90;17.60;100636.00;;;;4979910;28;87898;-68
2023/06/26 00:58:02;;;;;;;4.18;3.80;;;17.50;99.90;17.50;100643.00;;;;4961529;28;87190;-69
2023/06/26 01:00:28;;;;;;;6.05;4.40;;;17.40;99.90;17.50;100628.00;;;;4993393;28;87922;-68
2023/06/26 01:02:58;;;;;;;4.25;3.85;;;17.40;99.90;17.40;100632.00;;;;4993354;28;89161;-68
2023/06/26 01:05:26;;;;;;;4.50;3.83;;;17.40;99.90;17.40;100632.00;;;;4991806;28;88776;-68
2023/06/26 01:07:52;;;;;;;4.97;3.40;;;17.30;99.90;17.30;100627.00;;;;4991619;28;88053;-68
2023/06/26 01:10:17;;;;;;;5.90;3.20;;;17.30;99.90;17.30;100621.00;;;;4992654;28;108948;-68
2023/06/26 01:12:44;;;;;;;6.90;4.55;;;17.30;99.90;17.30;100624.00;;;;4992528;28;117816;-68
2023/06/26 01:15:10;;;;;;;5.45;4.30;;;17.20;99.90;17.20;100623.00;;;;4971866;28;108282;-68
2023/06/26 01:17:37;;;;;;;4.15;3.03;;;17.20;99.90;17.20;100610.00;;;;4971454;28;110365;-68
2023/06/26 01:20:09;;;;;;;3.80;3.45;;;17.10;99.90;17.10;100614.00;;;;4978212;28;108845;-68
2023/06/26 01:23:17;;;;;;;5.63;4.10;;;17.10;99.90;17.10;100611.00;;;;4993440;27;87179;-68
2023/06/26 01:26:22;;;;;;;10.63;4.55;;;17.00;99.90;17.00;100619.00;;;;4975560;28;88230;-68
2023/06/26 01:28:50;;;;;;;5.45;4.18;;;17.00;99.90;17.10;100610.00;;;;4975583;28;90474;-68
2023/06/26 01:31:16;;;;;;;6.38;3.92;;;17.00;99.90;17.00;100611.00;;;;4991197;28;88615;-68
2023/06/26 01:33:43;;;;;;;5.22;3.08;;;17.00;99.90;17.00;100607.00;;;;4989588;28;88143;-69
2023/06/26 01:36:10;;;;;;;4.30;3.60;;;16.90;99.90;17.00;100614.00;;;;4974355;28;97617;-68
2023/06/26 01:38:35;;;;;;;4.78;3.83;;;16.90;99.90;17.00;100612.00;;;;4990892;28;87994;-70
2023/06/26 01:41:03;;;;;;;9.38;3.75;;;17.00;99.90;17.00;100610.00;;;;4993959;28;87968;-69
2023/06/26 01:44:07;;;;;;;4.68;3.85;;;16.90;99.90;16.90;100607.00;;;;4992594;28;88071;-69
2023/06/26 01:47:02;;;;;;;4.55;3.35;;;16.90;99.90;16.90;100609.00;;;;4969862;28;108800;-68
2023/06/26 01:49:51;;;;;;;3.85;2.88;;;16.90;99.90;16.90;100609.00;;;;4978647;28;86966;-68
2023/06/26 01:52:29;;;;;;;2.53;2.33;;;16.80;99.90;16.90;100600.00;;;;4989562;27;87908;-68
2023/06/26 01:55:21;;;;;;;4.57;3.13;;;16.80;99.90;16.80;100601.00;;;;4973897;28;87804;-68
2023/06/26 01:57:48;;;;;;;3.72;2.78;;;16.80;99.90;16.80;100599.00;;;;4974137;28;103849;-68
2023/06/26 02:00:17;;;;;;;5.07;2.92;;;16.70;99.90;16.80;100595.00;;;;4993363;28;87951;-68
2023/06/26 02:02:44;;;;;;;6.40;3.00;;;16.70;99.90;16.80;100591.00;;;;4993595;28;88254;-68
2023/06/26 02:05:10;;;;;;;3.20;2.63;;;16.70;99.90;16.70;100587.00;;;;4971525;28;88399;-68
2023/06/26 02:07:36;;;;;;;4.30;3.88;;;16.70;99.90;16.70;100593.00;;;;4991780;28;117433;-68
2023/06/26 02:10:02;;;;;;;2.92;2.53;;;16.60;99.90;16.70;100580.00;;;;4992605;28;103977;-68
2023/06/26 02:12:28;;;;;;;4.60;3.95;;;16.60;99.90;16.70;100581.00;;;;4990987;28;100809;-68
2023/06/26 02:14:54;;;;;;;7.88;4.05;;;16.60;99.90;16.70;100592.00;;;;4992325;28;116453;-69
2023/06/26 02:17:19;;;;;;;4.38;3.28;;;16.60;99.90;16.70;100593.00;;;;4989666;28;115970;-69
2023/06/26 02:19:47;;;;;;;4.78;3.50;;;16.60;99.90;16.60;100587.00;;;;4991191;28;89454;-68
2023/06/26 02:22:15;;;;;;;5.25;3.65;;;16.60;99.90;16.60;100592.00;;;;4993399;28;89142;-68
2023/06/26 02:24:41;;;;;;;6.60;3.50;;;16.60;99.90;16.60;100582.00;;;;4992481;28;89212;-68
2023/06/26 02:27:06;;;;;;;3.53;3.22;;;16.60;99.90;16.60;100583.00;;;;4991784;28;87792;-68
2023/06/26 02:29:32;;;;;;;5.60;3.05;;;16.50;99.90;16.60;100598.00;;;;4992230;28;108732;-68
2023/06/26 02:31:58;;;;;;;3.15;2.85;;;16.50;99.90;16.50;100595.00;;;;4987222;28;108829;-68
2023/06/26 02:34:23;;;;;;;3.28;2.90;;;16.50;99.90;16.50;100588.00;;;;4986838;28;116832;-68
2023/06/26 02:36:49;;;;;;;3.90;2.70;;;16.40;99.90;16.40;100588.00;;;;4991030;28;117666;-68
2023/06/26 02:39:15;;;;;;;3.88;2.95;;;16.40;99.90;16.40;100579.00;;;;4973964;28;87301;-67
2023/06/26 02:41:41;;;;;;;4.38;3.25;;;16.30;99.90;16.30;100578.00;;;;4989618;28;98973;-68
2023/06/26 02:44:14;;;;;;;4.90;2.85;;;16.30;99.90;16.30;100581.00;;;;4990180;28;88763;-68
2023/06/26 02:46:40;;;;;;;5.22;3.50;;;16.30;99.90;16.30;100586.00;;;;4991578;28;89024;-68
2023/06/26 02:49:06;;;;;;;4.10;2.90;;;16.20;99.90;16.20;100573.00;;;;4990529;28;88598;-68
2023/06/26 02:51:33;;;;;;;3.30;3.00;;;16.20;99.90;16.20;100582.00;;;;4992123;28;96085;-68
2023/06/26 02:53:59;;;;;;;3.10;2.80;;;16.20;99.90;16.20;100575.00;;;;4991936;27;88018;-67
2023/06/26 02:56:28;;;;;;;3.08;2.80;;;16.10;99.90;16.20;100579.00;;;;4987236;28;110951;-67
2023/06/26 02:58:55;;;;;;;4.18;3.65;;;16.10;99.90;16.20;100563.00;;;;4989457;28;87800;-68
2023/06/26 03:01:21;;;;;;;6.50;3.80;;;16.10;99.90;16.20;100567.00;;;;4990324;28;89613;-68
2023/06/26 03:03:47;;;;;;;4.75;3.42;;;16.10;99.90;16.20;100567.00;;;;5004603;28;88143;-68
2023/06/26 03:06:13;;;;;;;3.95;3.25;;;16.00;99.90;16.20;100567.00;;;;4975798;28;116167;-68
2023/06/26 03:08:39;;;;;;;4.90;3.72;;;16.10;99.90;16.20;100572.00;;;;4993653;28;87686;-68
2023/06/26 03:11:06;;;;;;;6.47;3.55;;;16.10;99.90;16.20;100569.00;;;;4991438;28;109267;-68
2023/06/26 03:13:36;;;;;;;3.90;3.22;;;16.10;99.90;16.20;100562.00;;;;4986816;28;87823;-68
2023/06/26 03:16:03;;;;;;;4.38;3.75;;;16.10;99.90;16.20;100560.00;;;;4988199;28;96878;-68
2023/06/26 03:18:28;;;;;;;3.65;3.22;;;16.10;99.90;16.20;100557.00;;;;4988267;28;101380;-69
2023/06/26 03:20:55;;;;;;;3.33;3.00;;;16.10;99.90;16.20;100558.00;;;;4976047;28;108144;-68
2023/06/26 03:23:22;;;;;;;4.38;2.75;;;16.10;99.90;16.20;100559.00;;;;4974159;28;88467;-68
2023/06/26 03:25:49;;;;;;;8.00;4.03;;;16.10;99.90;16.10;100561.00;;;;4969125;28;99902;-68
2023/06/26 03:28:14;;;;;;;4.80;3.03;;;16.10;99.90;16.10;100566.00;;;;4988663;28;94834;-68
2023/06/26 03:30:40;;;;;;;5.43;3.65;;;16.10;99.90;16.10;100560.00;;;;4973861;28;100188;-68
2023/06/26 03:33:06;;;;;;;6.75;3.88;;;16.00;99.90;16.10;100554.00;;;;4983273;28;117724;-68
2023/06/26 03:35:32;;;;;;;3.65;2.63;;;16.00;99.90;16.10;100559.00;;;;4987824;28;117815;-68
2023/06/26 03:37:58;;;;;;;4.47;3.55;;;16.00;99.90;16.10;100557.00;;;;4975470;28;87887;-68
2023/06/26 03:40:24;;;;;;;3.85;3.10;;;16.00;99.90;16.00;100550.00;;;;4990415;28;87961;-68
2023/06/26 03:42:50;;;;;;;4.57;3.58;;;16.00;99.90;16.00;100554.00;;;;4986541;28;118681;-68
2023/06/26 03:45:15;;;;;;;6.57;4.25;;;16.00;99.90;16.00;100555.00;;;;4986791;28;117197;-68
2023/06/26 03:47:41;;;;;;;6.38;3.90;;;15.90;99.90;16.00;100550.00;;;;4947775;28;111074;-67
2023/06/26 03:50:07;;;;;;;4.32;3.28;;;15.90;99.90;16.00;100555.00;;;;4973122;28;109055;-68
2023/06/26 03:52:33;;;;;;;6.88;3.90;;;15.90;99.90;16.00;100551.00;;;;4974846;28;104582;-70
2023/06/26 03:54:59;;;;;;;4.30;3.83;;;15.90;99.90;15.90;100552.00;;;;4957892;28;113914;-69
2023/06/26 03:57:25;;;;;;;4.20;3.40;;;15.90;99.90;16.00;100554.00;;;;4960264;28;88139;-68
2023/06/26 03:59:52;;;;;;;3.13;2.75;;;15.90;99.90;16.00;100543.00;;;;4976306;28;99351;-67
2023/06/26 04:02:18;;;;;;;3.42;3.13;;;15.90;99.90;16.00;100549.00;;;;4977014;28;89025;-68
2023/06/26 04:04:44;;;;;;;3.42;3.13;;;15.90;99.90;16.10;100549.00;;;;4975454;28;88604;-67
2023/06/26 04:07:10;;;;;;;3.20;2.90;;;16.00;99.90;16.20;100546.00;;;;4970673;28;88022;-68
2023/06/26 04:09:35;;;;;;;7.47;3.42;;;16.10;99.90;16.30;100540.00;;;;4973110;28;107812;-68
2023/06/26 04:12:02;;;;;;;3.80;3.35;;;16.10;99.90;16.40;100543.00;;;;4971737;28;115973;-68
2023/06/26 04:14:27;;;;;;;4.63;3.60;;;16.20;99.90;16.50;100540.00;;;;4972538;28;107638;-68
2023/06/26 04:16:53;;;;;;;2.67;2.30;;;16.30;99.90;16.60;100542.00;;;;4972955;28;108729;-68
2023/06/26 04:19:19;;;;;;;5.25;3.70;;;16.40;99.90;16.70;100539.00;;;;4973251;28;87752;-68
2023/06/26 04:21:45;;;;;;;3.85;2.90;;;16.50;99.90;16.80;100533.00;;;;4973157;28;88061;-69
2023/06/26 04:24:11;;;;;;;2.85;2.55;;;16.60;99.90;16.90;100539.00;;;;4972256;28;113646;-68
2023/06/26 04:26:37;;;;;;;4.20;3.20;;;16.70;99.90;17.00;100534.00;;;;4975003;28;92752;-68
2023/06/26 04:29:03;;;;;;;4.20;2.85;;;16.80;99.90;17.10;100526.00;;;;4976224;28;94670;-69
2023/06/26 04:31:28;;;;;;;4.47;3.13;;;16.90;99.90;17.20;100527.00;;;;4976233;28;87933;-69
2023/06/26 04:33:55;;;;;;;4.57;3.03;;;17.10;99.90;17.40;100540.00;;;;4971324;28;116945;-68
2023/06/26 04:36:21;;;;;;;8.05;4.22;;;17.20;99.90;17.60;100539.00;;;;4973235;28;87790;-69
2023/06/26 04:38:49;;;;;;;4.43;3.13;;;17.40;99.90;17.70;100549.00;;;;4990765;27;88040;-68
2023/06/26 04:41:15;;;;;;;3.22;2.83;;;17.50;99.90;17.90;100544.00;;;;4974780;28;88483;-68
2023/06/26 04:43:41;;;;;;;4.65;3.17;;;17.70;99.90;18.10;100545.00;;;;4969700;28;117525;-68
2023/06/26 04:46:06;;;;;;;3.47;2.83;;;17.90;99.90;18.30;100542.00;;;;4970719;28;110178;-68
2023/06/26 04:48:32;;;;;;;4.65;3.03;;;18.10;99.90;18.50;100547.00;;;;4967953;28;108881;-69
2023/06/26 04:50:58;;;;;;;2.33;2.13;;;18.30;99.90;18.80;100541.00;;;;4965341;28;90780;-68
2023/06/26 04:53:25;;;;;;;4.47;2.78;;;18.50;99.90;18.90;100535.00;;;;4967129;28;88228;-68
2023/06/26 04:55:52;;;;;;;2.53;2.33;;;18.70;99.90;19.20;100534.00;;;;4965373;28;111789;-68
2023/06/26 04:58:19;;;;;;;3.90;2.75;;;19.00;99.90;19.40;100534.00;;;;4957593;28;87990;-68
2023/06/26 05:00:44;;;;;;;3.65;2.75;;;19.20;99.90;19.60;100527.00;;;;4946350;28;99373;-68
2023/06/26 05:03:13;;;;;;;3.47;2.67;;;19.40;99.90;19.80;100527.00;;;;4943172;28;88710;-69
2023/06/26 05:05:39;;;;;;;4.10;2.78;;;19.60;99.90;20.00;100522.00;;;;4947874;28;87473;-69
2023/06/26 05:08:22;;;;;;;4.10;2.67;;;19.80;99.90;20.20;100533.00;;;;4946410;28;109173;-70
2023/06/26 05:10:49;;;;;;;4.72;2.97;;;20.00;99.90;20.40;100529.00;;;;4960956;28;88856;-69
2023/06/26 05:13:17;;;;;;;3.80;2.38;;;20.20;99.90;20.70;100525.00;;;;4951597;28;89056;-68
2023/06/26 05:15:52;;;;;;;2.28;1.85;;;20.40;99.90;20.90;100518.00;;;;4954715;28;87667;-69
2023/06/26 05:18:18;;;;;;;2.17;1.83;;;20.60;99.90;21.10;100516.00;;;;4950486;28;107715;-69
2023/06/26 05:20:45;;;;;;;3.40;2.45;;;20.80;99.90;21.30;100522.00;;;;4983885;27;87983;-69
2023/06/26 05:23:15;;;;;;;3.08;2.33;;;21.10;99.90;21.50;100517.00;;;;4951364;28;92468;-68
2023/06/26 05:25:41;;;;;;;4.60;2.90;;;21.20;99.90;21.70;100517.00;;;;4984890;27;104097;-69
2023/06/26 05:28:10;;;;;;;3.00;2.25;;;21.40;99.90;21.80;100508.00;;;;4949900;28;88005;-69
2023/06/26 05:30:36;;;;;;;2.45;1.88;;;21.60;99.90;22.00;100516.00;;;;4953832;28;87260;-69
2023/06/26 05:33:03;;;;;;;2.85;2.10;;;21.70;99.90;22.20;100512.00;;;;4952252;28;88068;-69
2023/06/26 05:35:30;;;;;;;2.58;1.85;;;21.90;99.90;22.40;100512.00;;;;4953344;28;87809;-69
2023/06/26 05:37:57;;;;;;;3.17;2.08;;;22.20;99.90;22.60;100511.00;;;;4969466;28;88972;-68
2023/06/26 05:40:23;;;;;;;2.92;1.52;;;22.30;99.90;22.80;100507.00;;;;4956220;28;88550;-68
2023/06/26 05:42:49;;;;;;;2.08;1.45;;;22.50;99.90;22.90;100512.00;;;;4953241;28;108039;-68
2023/06/26 05:45:15;;;;;;;2.13;1.73;;;22.70;99.90;23.10;100519.00;;;;4952522;28;104120;-68
2023/06/26 05:47:42;;;;;;;3.35;2.42;;;22.80;99.90;23.20;100517.00;;;;4955229;28;87937;-69
2023/06/26 05:50:09;;;;;;;6.03;2.55;;;23.00;99.90;23.40;100514.00;;;;4952745;28;89178;-68
2023/06/26 05:52:36;;;;;;;2.63;2.40;;;23.10;99.90;23.50;100522.00;;;;4954502;28;110330;-69
2023/06/26 05:55:03;;;;;;;3.72;2.03;;;23.30;99.90;23.60;100509.00;;;;4951328;28;87408;-68
2023/06/26 05:57:30;;;;;;;2.03;1.83;;;23.40;99.90;23.70;100501.00;;;;4953965;28;87903;-69
2023/06/26 05:59:56;;;;;;;1.95;1.65;;;23.40;99.90;23.80;100498.00;;;;4949682;28;111311;-69
2023/06/26 06:02:22;;;;;;;3.50;2.00;;;23.60;99.90;24.00;100500.00;;;;4955033;28;109118;-70
2023/06/26 06:04:48;;;;;;;3.25;1.92;;;23.70;99.90;24.20;100494.00;;;;4985690;27;98550;-71
2023/06/26 06:07:14;;;;;;;1.73;1.20;;;23.90;99.90;24.40;100490.00;;;;4964693;28;109222;-68
2023/06/26 06:09:40;;;;;;;1.98;1.83;;;24.10;99.60;24.60;100500.00;;;;4951232;28;102722;-69
2023/06/26 06:12:07;;;;;;;1.13;0.98;;;24.30;99.20;24.80;100491.00;;;;4952475;28;118079;-68
2023/06/26 06:14:34;;;;;;;1.63;1.52;;;24.50;98.80;25.00;100493.00;;;;4953812;28;89107;-68
2023/06/26 06:17:00;;;;;;;6.15;1.85;;;24.70;98.30;25.20;100484.00;;;;4949857;28;99241;-69
2023/06/26 06:19:25;;;;;;;1.40;1.30;;;24.90;97.70;25.30;100486.00;;;;4953993;28;89131;-68
2023/06/26 06:21:51;;;;;;;1.95;1.35;;;25.00;96.80;25.50;100489.00;;;;4952524;28;115119;-68
2023/06/26 06:24:17;;;;;;;1.98;1.38;;;25.20;96.40;25.70;100476.00;;;;4951452;28;91594;-68
2023/06/26 06:26:43;;;;;;;1.58;1.48;;;25.40;96.00;25.90;100483.00;;;;4952140;28;109703;-70
2023/06/26 06:29:08;;;;;;;1.80;1.23;;;25.60;95.50;26.00;100483.00;;;;4949993;28;88296;-70
2023/06/26 06:31:34;;;;;;;2.17;1.75;;;25.80;94.90;26.20;100482.00;;;;4952598;28;111558;-69
2023/06/26 06:34:00;;;;;;;3.00;2.00;;;25.90;94.70;26.50;100472.00;;;;4951153;28;110905;-69
2023/06/26 06:36:25;;;;;;;2.83;1.50;;;26.20;93.70;26.60;100482.00;;;;4952739;28;103587;-69
2023/06/26 06:38:51;;;;;;;1.75;1.55;;;26.30;93.60;26.80;100484.00;;;;4962996;28;87959;-69
2023/06/26 06:41:17;;;;;;;1.75;1.58;;;26.50;93.20;27.00;100486.00;;;;4971084;28;88497;-69
2023/06/26 06:43:43;;;;;;;2.75;1.70;;;26.70;92.00;27.10;100486.00;;;;4974195;28;108504;-68
2023/06/26 06:46:09;;;;;;;2.22;1.77;;;26.80;91.20;27.20;100489.00;;;;4975074;28;108098;-69
2023/06/26 06:48:35;;;;;;;2.00;1.52;;;27.00;90.40;27.30;100481.00;;;;4972358;28;117809;-69
2023/06/26 06:51:00;;;;;;;2.90;2.13;;;27.00;88.90;27.40;100482.00;;;;4974214;28;88812;-68
2023/06/26 06:53:26;;;;;;;2.53;1.83;;;27.10;87.50;27.50;100484.00;;;;4972561;28;110482;-68
2023/06/26 06:55:52;;;;;;;1.92;1.80;;;27.20;86.30;27.60;100479.00;;;;4971096;28;108547;-70
2023/06/26 06:58:21;;;;;;;2.70;1.75;;;27.30;86.00;27.80;100480.00;;;;4970368;28;117868;-69
2023/06/26 07:00:46;;;;;;;1.25;1.15;;;27.50;85.50;27.90;100476.00;;;;4973198;28;88851;-70
2023/06/26 07:03:12;;;;;;;2.17;1.92;;;27.70;83.50;28.10;100476.00;;;;4968545;28;87899;-68
2023/06/26 07:05:38;;;;;;;2.92;1.88;;;27.80;82.60;28.20;100472.00;;;;4971923;28;108378;-68
2023/06/26 07:08:04;;;;;;;2.05;1.75;;;27.90;79.70;28.30;100470.00;;;;4974252;28;115193;-68
2023/06/26 07:10:30;;;;;;;5.00;1.95;;;28.00;77.50;28.20;100476.00;;;;4970725;28;117464;-69
2023/06/26 07:12:55;;;;;;;2.05;1.65;;;28.00;76.50;28.30;100471.00;;;;4972182;28;88520;-70
2023/06/26 07:15:21;;;;;;;2.60;1.88;;;27.90;76.80;28.40;100471.00;;;;4971300;28;108338;-69
2023/06/26 07:17:47;;;;;;;2.58;2.05;;;28.10;76.10;28.60;100476.00;;;;4971734;28;96238;-70
2023/06/26 07:20:15;;;;;;;2.15;1.35;;;28.30;76.60;28.70;100476.00;;;;4983278;27;117143;-69
2023/06/26 07:22:42;;;;;;;2.22;1.70;;;28.40;74.30;28.80;100476.00;;;;4986284;27;88011;-68
2023/06/26 07:25:11;;;;;;;2.30;1.25;;;28.50;73.70;29.00;100479.00;;;;4973774;28;88026;-69
2023/06/26 07:27:41;;;;;;;2.88;1.73;;;28.70;73.40;29.20;100476.00;;;;4973162;28;88306;-74
2023/06/26 07:30:08;;;;;;;2.28;1.75;;;28.90;72.00;29.30;100474.00;;;;4983399;28;89806;-72
2023/06/26 07:32:34;;;;;;;2.75;1.95;;;29.00;69.40;29.30;100472.00;;;;4971875;28;87169;-73
2023/06/26 07:35:00;;;;;;;2.97;1.63;;;29.10;69.10;29.40;100470.00;;;;4969615;28;99600;-72
2023/06/26 07:37:26;;;;;;;2.92;1.83;;;29.10;68.60;29.60;100466.00;;;;4981370;27;102772;-72
2023/06/26 07:39:52;;;;;;;2.85;1.92;;;29.30;68.20;29.80;100462.00;;;;4972507;28;117579;-73
2023/06/26 07:42:17;;;;;;;3.03;1.30;;;29.50;67.90;29.90;100474.00;;;;4972231;28;109570;-73
2023/06/26 07:44:43;;;;;;;2.85;2.38;;;29.60;66.90;30.00;100465.00;;;;4974225;28;107169;-74
2023/06/26 07:47:09;;;;;;;1.90;1.67;;;29.70;66.10;30.10;100470.00;;;;4974141;28;87808;-73
2023/06/26 07:49:35;;;;;;;1.45;1.35;;;29.80;64.50;30.10;100457.00;;;;4956131;28;89976;-75
2023/06/26 07:52:01;;;;;;;2.42;1.60;;;29.90;63.90;30.20;100459.00;;;;4970598;28;88027;-75
2023/06/26 07:54:27;;;;;;;3.10;1.65;;;29.90;64.30;30.50;100464.00;;;;4971837;28;88180;-74
2023/06/26 07:57:02;;;;;;;2.38;1.80;;;30.20;64.80;30.90;100455.00;;;;4971360;28;88285;-74
2023/06/26 07:59:29;;;;;;;2.63;1.73;;;30.50;64.50;31.20;100455.00;;;;4951748;28;88206;-74
2023/06/26 08:01:56;;;;;;;2.10;1.13;;;30.80;62.60;31.40;100454.00;;;;4969583;28;99643;-73
2023/06/26 08:04:25;;;;;;;3.30;1.70;;;31.00;60.00;31.60;100459.00;;;;4972738;28;88772;-74
2023/06/26 08:06:54;;;;;;;3.28;1.63;;;31.30;59.50;31.60;100455.00;;;;4971555;28;88620;-72
2023/06/26 08:09:22;;;;;;;2.30;1.85;;;31.30;57.90;31.70;100455.00;;;;4972747;28;87987;-73
2023/06/26 08:11:48;;;;;;;2.10;1.83;;;31.40;57.00;31.70;100459.00;;;;4970710;28;87855;-73
2023/06/26 08:14:16;;;;;;;1.48;1.38;;;31.40;57.30;31.80;100448.00;;;;4973430;28;87711;-73
2023/06/26 08:16:43;;;;;;;1.73;1.30;;;31.50;57.00;31.90;100449.00;;;;4970200;28;100452;-74
2023/06/26 08:19:10;;;;;;;2.45;1.77;;;31.60;54.90;31.90;100442.00;;;;4967227;28;87899;-74
2023/06/26 08:21:35;;;;;;;4.72;1.60;;;31.60;52.70;31.80;100444.00;;;;4969351;28;103033;-76
2023/06/26 08:24:02;;;;;;;1.73;1.40;;;31.60;52.60;31.70;100441.00;;;;4968243;28;108132;-74
2023/06/26 08:26:28;;;;;;;2.47;1.73;;;31.50;52.40;31.80;100446.00;;;;4954807;28;88379;-74
2023/06/26 08:28:59;;;;;;;2.13;1.38;;;31.50;52.80;31.80;100437.00;;;;4979958;28;88813;-74
2023/06/26 08:31:25;;;;;;;2.45;1.42;;;31.60;51.90;31.80;100445.00;;;;4952685;28;109289;-74
2023/06/26 08:33:51;;;;;;;3.65;1.33;;;31.60;51.00;31.70;100441.00;;;;4969978;28;109105;-75
2023/06/26 08:36:16;;;;;;;1.63;1.52;;;31.50;50.60;31.60;100445.00;;;;4989486;27;88073;-74
2023/06/26 08:38:43;;;;;;;1.70;1.38;;;31.40;51.00;31.70;100432.00;;;;4951328;28;115599;-73
2023/06/26 08:41:17;;;;;;;2.10;1.90;;;31.50;51.60;32.00;100433.00;;;;4971934;28;111520;-73
2023/06/26 08:43:43;;;;;;;2.75;1.90;;;31.60;52.20;32.30;100427.00;;;;4974794;28;107733;-73
2023/06/26 08:46:09;;;;;;;2.33;1.33;;;31.90;51.70;32.50;100426.00;;;;4973594;28;117040;-73
2023/06/26 08:48:36;;;;;;;3.33;1.52;;;32.20;50.20;32.60;100428.00;;;;4973992;28;109952;-73
2023/06/26 08:51:09;;;;;;;2.05;1.38;;;32.20;50.20;32.70;100420.00;;;;4977248;28;87792;-73
2023/06/26 08:53:58;;;;;;;1.40;1.27;;;32.40;50.60;33.00;100424.00;;;;4983352;28;91106;-73
2023/06/26 08:56:37;;;;;;;3.05;1.65;;;32.60;50.60;33.20;100425.00;;;;4971332;28;88125;-76
2023/06/26 08:59:04;;;;;;;1.30;1.20;;;32.80;48.50;33.10;100426.00;;;;4987072;27;88169;-75
2023/06/26 09:01:31;;;;;;;2.20;1.58;;;32.80;47.60;33.00;100413.00;;;;4957988;28;101404;-76
2023/06/26 09:03:57;;;;;;;2.00;1.38;;;32.80;47.10;33.00;100416.00;;;;4971011;28;109103;-76
2023/06/26 09:06:22;;;;;;;1.88;1.48;;;32.70;47.90;33.10;100422.00;;;;4984878;27;117589;-74
2023/06/26 09:08:48;;;;;;;3.45;2.40;;;32.80;47.60;33.20;100412.00;;;;4970888;28;113852;-74
2023/06/26 09:11:14;;;;;;;2.28;1.90;;;32.90;47.10;33.30;100411.00;;;;4972444;28;96187;-73
2023/06/26 09:13:40;;;;;;;4.22;2.25;;;33.00;46.30;33.30;100410.00;;;;4972936;28;108830;-72
2023/06/26 09:16:07;;;;;;;2.10;1.90;;;33.00;46.10;33.40;100415.00;;;;4970905;28;117604;-73
2023/06/26 09:18:34;;;;;;;1.13;1.02;;;33.10;46.30;33.40;100413.00;;;;4973326;28;88781;-75
2023/06/26 09:21:00;;;;;;;3.03;1.70;;;33.10;45.40;33.30;100409.00;;;;4972773;28;87839;-74
2023/06/26 09:23:26;;;;;;;1.67;1.40;;;33.00;45.60;33.40;100412.00;;;;4971374;28;88062;-73
2023/06/26 09:25:52;;;;;;;3.35;1.85;;;33.10;45.30;33.50;100413.00;;;;4973746;28;117999;-73
2023/06/26 09:28:18;;;;;;;2.45;1.77;;;33.00;45.40;33.50;100410.00;;;;4955371;28;117014;-74
2023/06/26 09:30:46;;;;;;;1.77;1.65;;;33.10;45.30;33.40;100412.00;;;;4957990;28;88079;-72
2023/06/26 09:33:19;;;;;;;2.20;1.58;;;33.20;45.20;33.30;100403.00;;;;4958403;28;87819;-72
2023/06/26 09:35:46;;;;;;;2.10;1.40;;;33.00;45.30;33.30;100400.00;;;;4973001;28;97365;-72
2023/06/26 09:38:12;;;;;;;1.65;1.25;;;33.00;45.80;33.30;100410.00;;;;4973651;28;88135;-74
2023/06/26 09:40:39;;;;;;;3.33;1.77;;;33.00;45.50;33.40;100397.00;;;;4972330;28;87720;-74
2023/06/26 09:43:07;;;;;;;2.17;1.30;;;33.00;45.30;33.40;100405.00;;;;4970380;28;88932;-73
2023/06/26 09:45:36;;;;;;;1.95;1.42;;;33.00;44.80;33.40;100392.00;;;;4974213;28;89115;-75
2023/06/26 09:48:03;;;;;;;2.03;1.20;;;33.00;45.10;33.40;100403.00;;;;4973648;28;88883;-73
2023/06/26 09:50:29;;;;;;;3.00;2.00;;;33.00;45.30;33.40;100402.00;;;;4975836;28;87775;-74
2023/06/26 09:52:55;;;;;;;3.47;1.25;;;33.10;44.90;33.50;100394.00;;;;4977732;28;87749;-72
2023/06/26 09:55:22;;;;;;;1.45;1.35;;;33.00;45.10;33.80;100393.00;;;;4970391;28;87992;-72
2023/06/26 09:57:50;;;;;;;2.35;1.60;;;33.30;44.80;33.90;100386.00;;;;4971717;28;88450;-74
2023/06/26 10:00:16;;;;;;;2.00;1.10;;;33.40;44.20;33.80;100388.00;;;;4988312;27;88554;-74
2023/06/26 10:02:42;;;;;;;3.25;2.42;;;33.40;44.00;33.70;100376.00;;;;4958764;28;87711;-75
2023/06/26 10:05:08;;;;;;;3.67;2.30;;;33.40;44.50;33.90;100388.00;;;;4973244;28;88327;-73
2023/06/26 10:07:35;;;;;;;3.70;1.95;;;33.50;44.90;34.00;100385.00;;;;4972049;28;118107;-75
2023/06/26 10:10:03;;;;;;;3.67;1.55;;;33.60;44.00;34.10;100385.00;;;;4975034;28;91503;-73
2023/06/26 10:12:30;;;;;;;2.67;1.63;;;33.60;44.00;34.10;100373.00;;;;4972584;28;89598;-72
2023/06/26 10:14:58;;;;;;;1.98;1.67;;;33.60;43.90;34.20;100377.00;;;;4970982;28;88719;-73
2023/06/26 10:17:28;;;;;;;2.63;1.75;;;33.60;44.00;34.30;100369.00;;;;4970666;28;88121;-73
2023/06/26 10:19:56;;;;;;;2.17;1.75;;;33.70;44.00;34.30;100366.00;;;;4968304;28;88291;-76
2023/06/26 10:22:27;;;;;;;4.47;2.58;;;33.80;43.90;34.50;100362.00;;;;4972090;28;87875;-72
2023/06/26 10:24:58;;;;;;;6.15;2.03;;;33.90;44.00;34.80;100364.00;;;;4971092;28;108941;-73
2023/06/26 10:27:28;;;;;;;2.35;2.20;;;34.20;44.60;35.10;100365.00;;;;4970479;28;91006;-74
2023/06/26 10:29:57;;;;;;;2.28;1.73;;;34.40;42.70;35.10;100354.00;;;;4973138;28;101122;-75
2023/06/26 10:32:26;;;;;;;2.20;1.85;;;34.50;41.60;34.90;100353.00;;;;4967988;28;88991;-75
2023/06/26 10:34:52;;;;;;;2.60;1.40;;;34.40;41.90;35.00;100358.00;;;;4968788;28;87670;-74
2023/06/26 10:37:18;;;;;;;3.15;1.80;;;34.30;41.40;35.10;100362.00;;;;4986771;27;110164;-76
2023/06/26 10:39:54;;;;;;;2.35;1.70;;;34.50;41.40;35.30;100353.00;;;;4975877;28;108862;-74
2023/06/26 10:42:34;;;;;;;1.52;1.35;;;34.60;41.70;35.40;100348.00;;;;4968123;28;87891;-74
2023/06/26 10:45:13;;;;;;;2.47;2.17;;;34.80;41.20;35.40;100349.00;;;;4989156;27;88235;-74
2023/06/26 10:47:41;;;;;;;2.95;1.80;;;34.70;40.20;35.30;100351.00;;;;4968064;28;87960;-73